Pagrindinis puslapis
METAR-TAF:

METAR-TAF

Oro uostai :

Bandar Lengeh, Iranas

platuma: 26-35N, ilguma: 054-50E, Aukštis: 14 m

Dabartinis oras

Ataskaita buvo paskelbta 2 valandos ir 40 minutes, ne 21:00 UTC
Vėjas 4 kt iš Vakarų
Temperatūra 30°C
Drėgmė 94%
Slėgis 1001 hPa
Matomumas: 4000 m
rūkana

METAR: OIBL 242100Z 26004KT 4000 BR NSC 30/29 Q1001

Laikas: 03:10 (23:40 UTC)


TAF: trūkstamas

Orai ataskaitas ir orų prognozės (METAR, TAF).

turimą stotys yra geltonos ir raudonos taškus žemėlapyje.

Perkelti pele per norėdami pamatyti stoties vardą.

Tada spustelėkite, norėdami matyti oro stebėjimo ir prognozės.

Norėdami pakeisti žemėlapį: spustelėkite ant žalios mygtukų su juodo kryžiaus žemyn,; žalią mygtuką su brūkšneliu, jei norite nutolinti; arba žalių rodyklių gretimoms žemėlapius.


METAR-TAF: